sensor_id;sensor_type;location;lat;lon;timestamp;P1;durP1;ratioP1;P2;durP2;ratioP2
32918;SDS011;19280;42.646;21.150;2022-08-02T00:02:21;13.65;;;8.60;;
32918;SDS011;19280;42.646;21.150;2022-08-02T00:04:47;9.15;;;6.00;;
32918;SDS011;19280;42.646;21.150;2022-08-02T00:07:14;10.00;;;5.88;;
32918;SDS011;19280;42.646;21.150;2022-08-02T00:09:42;10.63;;;6.65;;
32918;SDS011;19280;42.646;21.150;2022-08-02T00:12:09;10.63;;;6.32;;
32918;SDS011;19280;42.646;21.150;2022-08-02T00:14:37;12.32;;;6.75;;
32918;SDS011;19280;42.646;21.150;2022-08-02T00:17:04;10.13;;;6.57;;
32918;SDS011;19280;42.646;21.150;2022-08-02T00:19:31;10.00;;;6.65;;
32918;SDS011;19280;42.646;21.150;2022-08-02T00:21:58;16.15;;;6.90;;
32918;SDS011;19280;42.646;21.150;2022-08-02T00:24:25;9.40;;;6.63;;
32918;SDS011;19280;42.646;21.150;2022-08-02T00:26:52;12.00;;;7.00;;
32918;SDS011;19280;42.646;21.150;2022-08-02T00:29:19;10.73;;;6.80;;
32918;SDS011;19280;42.646;21.150;2022-08-02T00:31:45;13.85;;;7.30;;
32918;SDS011;19280;42.646;21.150;2022-08-02T00:34:12;10.10;;;8.13;;
32918;SDS011;19280;42.646;21.150;2022-08-02T00:36:39;16.48;;;6.90;;
32918;SDS011;19280;42.646;21.150;2022-08-02T00:39:06;9.82;;;7.47;;
32918;SDS011;19280;42.646;21.150;2022-08-02T00:41:33;11.77;;;7.65;;
32918;SDS011;19280;42.646;21.150;2022-08-02T00:44:10;13.30;;;7.60;;
32918;SDS011;19280;42.646;21.150;2022-08-02T00:46:36;12.48;;;7.40;;
32918;SDS011;19280;42.646;21.150;2022-08-02T00:49:05;11.52;;;7.05;;
32918;SDS011;19280;42.646;21.150;2022-08-02T00:51:31;11.55;;;7.00;;
32918;SDS011;19280;42.646;21.150;2022-08-02T00:53:58;13.20;;;7.55;;
32918;SDS011;19280;42.646;21.150;2022-08-02T00:56:25;16.67;;;7.53;;
32918;SDS011;19280;42.646;21.150;2022-08-02T00:58:51;9.88;;;7.65;;
32918;SDS011;19280;42.646;21.150;2022-08-02T01:01:18;10.88;;;8.00;;
32918;SDS011;19280;42.646;21.150;2022-08-02T01:03:45;13.60;;;8.00;;
32918;SDS011;19280;42.646;21.150;2022-08-02T01:06:13;10.82;;;8.50;;
32918;SDS011;19280;42.646;21.150;2022-08-02T01:08:40;12.48;;;7.53;;
32918;SDS011;19280;42.646;21.150;2022-08-02T01:11:07;10.48;;;7.47;;
32918;SDS011;19280;42.646;21.150;2022-08-02T01:13:33;12.55;;;7.72;;
32918;SDS011;19280;42.646;21.150;2022-08-02T01:16:01;9.50;;;7.57;;
32918;SDS011;19280;42.646;21.150;2022-08-02T01:18:30;8.63;;;7.25;;
32918;SDS011;19280;42.646;21.150;2022-08-02T01:28:37;8.50;;;6.60;;
32918;SDS011;19280;42.646;21.150;2022-08-02T01:31:19;11.65;;;6.80;;
32918;SDS011;19280;42.646;21.150;2022-08-02T01:33:47;13.43;;;7.32;;
32918;SDS011;19280;42.646;21.150;2022-08-02T01:36:17;19.13;;;7.90;;
32918;SDS011;19280;42.646;21.150;2022-08-02T01:38:45;10.55;;;7.68;;
32918;SDS011;19280;42.646;21.150;2022-08-02T01:41:17;11.18;;;7.30;;
32918;SDS011;19280;42.646;21.150;2022-08-02T01:43:44;12.32;;;9.45;;
32918;SDS011;19280;42.646;21.150;2022-08-02T01:46:12;15.10;;;11.60;;
32918;SDS011;19280;42.646;21.150;2022-08-02T01:48:40;18.33;;;13.20;;
32918;SDS011;19280;42.646;21.150;2022-08-02T01:51:09;19.58;;;12.13;;
32918;SDS011;19280;42.646;21.150;2022-08-02T01:53:37;20.67;;;11.95;;
32918;SDS011;19280;42.646;21.150;2022-08-02T01:56:06;14.85;;;9.82;;
32918;SDS011;19280;42.646;21.150;2022-08-02T01:58:34;10.50;;;8.90;;
32918;SDS011;19280;42.646;21.150;2022-08-02T02:01:02;17.15;;;9.07;;
32918;SDS011;19280;42.646;21.150;2022-08-02T02:03:29;9.90;;;8.10;;
32918;SDS011;19280;42.646;21.150;2022-08-02T02:05:58;17.42;;;8.20;;
32918;SDS011;19280;42.646;21.150;2022-08-02T02:08:30;12.23;;;8.02;;
32918;SDS011;19280;42.646;21.150;2022-08-02T02:10:57;12.90;;;7.68;;
32918;SDS011;19280;42.646;21.150;2022-08-02T02:13:24;10.18;;;7.43;;
32918;SDS011;19280;42.646;21.150;2022-08-02T02:15:52;11.60;;;7.57;;
32918;SDS011;19280;42.646;21.150;2022-08-02T02:18:23;10.57;;;7.70;;
32918;SDS011;19280;42.646;21.150;2022-08-02T02:20:51;12.23;;;6.82;;
32918;SDS011;19280;42.646;21.150;2022-08-02T02:23:18;8.90;;;6.60;;
32918;SDS011;19280;42.646;21.150;2022-08-02T02:25:45;9.70;;;6.82;;
32918;SDS011;19280;42.646;21.150;2022-08-02T02:28:13;8.13;;;6.35;;
32918;SDS011;19280;42.646;21.150;2022-08-02T02:30:44;9.68;;;6.60;;
32918;SDS011;19280;42.646;21.150;2022-08-02T02:33:13;12.48;;;7.70;;
32918;SDS011;19280;42.646;21.150;2022-08-02T02:35:43;12.23;;;6.68;;
32918;SDS011;19280;42.646;21.150;2022-08-02T02:38:11;9.48;;;6.13;;
32918;SDS011;19280;42.646;21.150;2022-08-02T02:40:39;7.63;;;5.75;;
32918;SDS011;19280;42.646;21.150;2022-08-02T02:43:06;7.90;;;5.85;;
32918;SDS011;19280;42.646;21.150;2022-08-02T02:45:35;10.80;;;5.82;;
32918;SDS011;19280;42.646;21.150;2022-08-02T02:48:03;6.93;;;6.22;;
32918;SDS011;19280;42.646;21.150;2022-08-02T02:50:31;8.80;;;6.45;;
32918;SDS011;19280;42.646;21.150;2022-08-02T02:52:59;8.57;;;6.43;;
32918;SDS011;19280;42.646;21.150;2022-08-02T02:55:26;7.47;;;6.32;;
32918;SDS011;19280;42.646;21.150;2022-08-02T02:57:54;8.20;;;6.13;;
32918;SDS011;19280;42.646;21.150;2022-08-02T03:00:21;17.23;;;6.32;;
32918;SDS011;19280;42.646;21.150;2022-08-02T03:03:08;9.48;;;6.63;;
32918;SDS011;19280;42.646;21.150;2022-08-02T03:05:37;7.72;;;6.55;;
32918;SDS011;19280;42.646;21.150;2022-08-02T03:08:04;8.52;;;6.18;;
32918;SDS011;19280;42.646;21.150;2022-08-02T03:10:31;8.05;;;6.72;;
32918;SDS011;19280;42.646;21.150;2022-08-02T03:12:58;11.55;;;6.53;;
32918;SDS011;19280;42.646;21.150;2022-08-02T03:15:26;9.00;;;7.07;;
32918;SDS011;19280;42.646;21.150;2022-08-02T03:17:52;13.55;;;8.43;;
32918;SDS011;19280;42.646;21.150;2022-08-02T03:20:19;13.80;;;8.80;;
32918;SDS011;19280;42.646;21.150;2022-08-02T03:22:47;24.48;;;9.88;;
32918;SDS011;19280;42.646;21.150;2022-08-02T03:25:14;24.85;;;10.48;;
32918;SDS011;19280;42.646;21.150;2022-08-02T03:27:42;23.48;;;12.77;;
32918;SDS011;19280;42.646;21.150;2022-08-02T03:30:09;26.77;;;13.52;;
32918;SDS011;19280;42.646;21.150;2022-08-02T03:32:37;25.73;;;13.05;;
32918;SDS011;19280;42.646;21.150;2022-08-02T03:35:05;30.98;;;14.38;;
32918;SDS011;19280;42.646;21.150;2022-08-02T03:37:32;31.20;;;14.25;;
32918;SDS011;19280;42.646;21.150;2022-08-02T03:40:00;22.73;;;13.75;;
32918;SDS011;19280;42.646;21.150;2022-08-02T03:42:28;24.60;;;12.45;;
32918;SDS011;19280;42.646;21.150;2022-08-02T03:44:56;13.88;;;8.75;;
32918;SDS011;19280;42.646;21.150;2022-08-02T03:47:24;14.77;;;8.63;;
32918;SDS011;19280;42.646;21.150;2022-08-02T03:49:51;8.57;;;6.75;;
32918;SDS011;19280;42.646;21.150;2022-08-02T03:52:18;9.75;;;7.38;;
32918;SDS011;19280;42.646;21.150;2022-08-02T03:54:45;14.27;;;9.70;;
32918;SDS011;19280;42.646;21.150;2022-08-02T03:57:13;23.02;;;11.73;;
32918;SDS011;19280;42.646;21.150;2022-08-02T03:59:40;15.30;;;11.23;;
32918;SDS011;19280;42.646;21.150;2022-08-02T04:02:07;15.45;;;10.38;;
32918;SDS011;19280;42.646;21.150;2022-08-02T04:04:34;22.20;;;12.93;;
32918;SDS011;19280;42.646;21.150;2022-08-02T04:07:01;24.50;;;14.48;;
32918;SDS011;19280;42.646;21.150;2022-08-02T04:09:28;18.38;;;12.15;;
32918;SDS011;19280;42.646;21.150;2022-08-02T04:11:54;24.58;;;11.68;;
32918;SDS011;19280;42.646;21.150;2022-08-02T04:14:21;15.73;;;10.18;;
32918;SDS011;19280;42.646;21.150;2022-08-02T04:16:56;15.05;;;10.30;;
32918;SDS011;19280;42.646;21.150;2022-08-02T04:22:08;17.55;;;9.55;;
32918;SDS011;19280;42.646;21.150;2022-08-02T04:24:37;17.55;;;9.80;;
32918;SDS011;19280;42.646;21.150;2022-08-02T04:27:05;22.95;;;11.13;;
32918;SDS011;19280;42.646;21.150;2022-08-02T04:29:32;22.35;;;10.23;;
32918;SDS011;19280;42.646;21.150;2022-08-02T04:32:00;17.98;;;9.68;;
32918;SDS011;19280;42.646;21.150;2022-08-02T04:34:28;19.55;;;9.25;;
32918;SDS011;19280;42.646;21.150;2022-08-02T04:36:55;11.85;;;7.78;;
32918;SDS011;19280;42.646;21.150;2022-08-02T04:39:23;12.23;;;7.35;;
32918;SDS011;19280;42.646;21.150;2022-08-02T04:41:50;11.23;;;6.53;;
32918;SDS011;19280;42.646;21.150;2022-08-02T04:44:17;7.20;;;6.43;;
32918;SDS011;19280;42.646;21.150;2022-08-02T04:46:43;13.70;;;6.25;;
32918;SDS011;19280;42.646;21.150;2022-08-02T04:49:11;9.50;;;6.07;;
32918;SDS011;19280;42.646;21.150;2022-08-02T04:54:22;12.82;;;5.45;;
32918;SDS011;19280;42.646;21.150;2022-08-02T04:56:50;11.55;;;3.75;;
32918;SDS011;19280;42.646;21.150;2022-08-02T04:59:17;7.05;;;3.40;;
32918;SDS011;19280;42.646;21.150;2022-08-02T05:01:44;10.13;;;3.50;;
32918;SDS011;19280;42.646;21.150;2022-08-02T05:04:11;6.97;;;3.40;;
32918;SDS011;19280;42.646;21.150;2022-08-02T05:06:37;10.13;;;3.10;;
32918;SDS011;19280;42.646;21.150;2022-08-02T05:09:04;5.43;;;2.70;;
32918;SDS011;19280;42.646;21.150;2022-08-02T05:11:31;5.30;;;3.42;;
32918;SDS011;19280;42.646;21.150;2022-08-02T05:13:58;7.75;;;3.00;;
32918;SDS011;19280;42.646;21.150;2022-08-02T05:16:25;12.00;;;3.78;;
32918;SDS011;19280;42.646;21.150;2022-08-02T05:18:52;8.75;;;3.15;;
32918;SDS011;19280;42.646;21.150;2022-08-02T05:21:18;10.98;;;2.67;;
32918;SDS011;19280;42.646;21.150;2022-08-02T05:23:45;4.07;;;2.33;;
32918;SDS011;19280;42.646;21.150;2022-08-02T05:26:12;8.23;;;2.80;;
32918;SDS011;19280;42.646;21.150;2022-08-02T05:28:39;3.35;;;2.13;;
32918;SDS011;19280;42.646;21.150;2022-08-02T05:31:05;6.03;;;2.17;;
32918;SDS011;19280;42.646;21.150;2022-08-02T05:33:32;5.25;;;2.55;;
32918;SDS011;19280;42.646;21.150;2022-08-02T05:35:59;6.13;;;3.05;;
32918;SDS011;19280;42.646;21.150;2022-08-02T05:38:25;7.78;;;2.70;;
32918;SDS011;19280;42.646;21.150;2022-08-02T05:40:55;6.03;;;2.40;;
32918;SDS011;19280;42.646;21.150;2022-08-02T05:43:22;4.35;;;2.72;;
32918;SDS011;19280;42.646;21.150;2022-08-02T05:45:49;4.95;;;2.55;;
32918;SDS011;19280;42.646;21.150;2022-08-02T05:48:19;8.48;;;2.88;;
32918;SDS011;19280;42.646;21.150;2022-08-02T05:50:47;4.45;;;2.45;;
32918;SDS011;19280;42.646;21.150;2022-08-02T05:53:23;4.13;;;2.35;;
32918;SDS011;19280;42.646;21.150;2022-08-02T05:56:08;8.30;;;2.65;;
32918;SDS011;19280;42.646;21.150;2022-08-02T05:58:42;9.73;;;2.40;;
32918;SDS011;19280;42.646;21.150;2022-08-02T06:01:12;9.57;;;3.05;;
32918;SDS011;19280;42.646;21.150;2022-08-02T06:03:41;10.00;;;3.10;;
32918;SDS011;19280;42.646;21.150;2022-08-02T06:06:14;4.85;;;2.15;;
32918;SDS011;19280;42.646;21.150;2022-08-02T06:08:43;3.42;;;2.00;;
32918;SDS011;19280;42.646;21.150;2022-08-02T06:11:15;3.15;;;1.90;;
32918;SDS011;19280;42.646;21.150;2022-08-02T06:13:43;7.57;;;1.92;;
32918;SDS011;19280;42.646;21.150;2022-08-02T06:16:11;4.78;;;2.10;;
32918;SDS011;19280;42.646;21.150;2022-08-02T06:18:42;13.95;;;2.35;;
32918;SDS011;19280;42.646;21.150;2022-08-02T06:21:09;7.72;;;2.13;;
32918;SDS011;19280;42.646;21.150;2022-08-02T06:23:40;4.57;;;2.25;;
32918;SDS011;19280;42.646;21.150;2022-08-02T06:26:08;6.00;;;2.15;;
32918;SDS011;19280;42.646;21.150;2022-08-02T06:28:38;10.10;;;2.17;;
32918;SDS011;19280;42.646;21.150;2022-08-02T06:31:05;9.13;;;2.40;;
32918;SDS011;19280;42.646;21.150;2022-08-02T06:33:32;5.68;;;2.50;;
32918;SDS011;19280;42.646;21.150;2022-08-02T06:38:53;14.57;;;2.40;;
32918;SDS011;19280;42.646;21.150;2022-08-02T06:41:21;9.15;;;1.98;;
32918;SDS011;19280;42.646;21.150;2022-08-02T06:43:59;10.35;;;2.20;;
32918;SDS011;19280;42.646;21.150;2022-08-02T06:46:27;7.22;;;2.30;;
32918;SDS011;19280;42.646;21.150;2022-08-02T06:48:55;8.73;;;2.55;;
32918;SDS011;19280;42.646;21.150;2022-08-02T06:51:22;10.02;;;3.22;;
32918;SDS011;19280;42.646;21.150;2022-08-02T06:53:49;7.32;;;2.40;;
32918;SDS011;19280;42.646;21.150;2022-08-02T06:56:16;5.25;;;2.20;;
32918;SDS011;19280;42.646;21.150;2022-08-02T06:58:44;4.38;;;2.53;;
32918;SDS011;19280;42.646;21.150;2022-08-02T07:01:11;5.32;;;2.30;;
32918;SDS011;19280;42.646;21.150;2022-08-02T07:03:38;9.32;;;2.65;;
32918;SDS011;19280;42.646;21.150;2022-08-02T07:06:06;5.40;;;2.13;;
32918;SDS011;19280;42.646;21.150;2022-08-02T07:08:33;7.90;;;2.03;;
32918;SDS011;19280;42.646;21.150;2022-08-02T07:11:09;6.30;;;2.22;;
32918;SDS011;19280;42.646;21.150;2022-08-02T07:13:36;15.10;;;3.35;;
32918;SDS011;19280;42.646;21.150;2022-08-02T07:16:04;9.00;;;1.92;;
32918;SDS011;19280;42.646;21.150;2022-08-02T07:18:31;5.70;;;1.80;;
32918;SDS011;19280;42.646;21.150;2022-08-02T07:20:57;4.85;;;1.80;;
32918;SDS011;19280;42.646;21.150;2022-08-02T07:23:24;7.78;;;2.67;;
32918;SDS011;19280;42.646;21.150;2022-08-02T07:25:51;7.15;;;1.92;;
32918;SDS011;19280;42.646;21.150;2022-08-02T07:28:18;6.35;;;2.05;;
32918;SDS011;19280;42.646;21.150;2022-08-02T07:30:45;11.40;;;2.30;;
32918;SDS011;19280;42.646;21.150;2022-08-02T07:33:11;8.82;;;2.42;;
32918;SDS011;19280;42.646;21.150;2022-08-02T07:35:39;8.10;;;1.90;;
32918;SDS011;19280;42.646;21.150;2022-08-02T07:38:06;10.52;;;2.05;;
32918;SDS011;19280;42.646;21.150;2022-08-02T07:40:33;2.38;;;1.63;;
32918;SDS011;19280;42.646;21.150;2022-08-02T07:43:00;7.88;;;1.88;;
32918;SDS011;19280;42.646;21.150;2022-08-02T07:45:27;6.07;;;1.75;;
32918;SDS011;19280;42.646;21.150;2022-08-02T07:47:54;3.25;;;1.73;;
32918;SDS011;19280;42.646;21.150;2022-08-02T07:50:22;12.70;;;1.92;;
32918;SDS011;19280;42.646;21.150;2022-08-02T07:52:49;5.30;;;1.83;;
32918;SDS011;19280;42.646;21.150;2022-08-02T07:55:16;6.15;;;1.52;;
32918;SDS011;19280;42.646;21.150;2022-08-02T07:57:46;3.25;;;1.48;;
32918;SDS011;19280;42.646;21.150;2022-08-02T08:00:13;9.25;;;1.98;;
32918;SDS011;19280;42.646;21.150;2022-08-02T08:02:42;5.13;;;1.38;;
32918;SDS011;19280;42.646;21.150;2022-08-02T08:05:09;4.88;;;1.50;;
32918;SDS011;19280;42.646;21.150;2022-08-02T08:07:36;2.15;;;1.15;;
32918;SDS011;19280;42.646;21.150;2022-08-02T08:10:04;7.88;;;1.35;;
32918;SDS011;19280;42.646;21.150;2022-08-02T08:12:31;3.63;;;1.40;;
32918;SDS011;19280;42.646;21.150;2022-08-02T08:14:58;6.30;;;1.48;;
32918;SDS011;19280;42.646;21.150;2022-08-02T08:17:25;5.32;;;1.40;;
32918;SDS011;19280;42.646;21.150;2022-08-02T08:19:52;4.82;;;1.58;;
32918;SDS011;19280;42.646;21.150;2022-08-02T08:22:19;3.47;;;1.30;;
32918;SDS011;19280;42.646;21.150;2022-08-02T08:24:46;3.67;;;1.45;;
32918;SDS011;19280;42.646;21.150;2022-08-02T08:27:13;2.90;;;1.20;;
32918;SDS011;19280;42.646;21.150;2022-08-02T08:29:40;5.45;;;1.60;;
32918;SDS011;19280;42.646;21.150;2022-08-02T08:32:07;3.08;;;1.77;;
32918;SDS011;19280;42.646;21.150;2022-08-02T08:34:34;1.90;;;1.40;;
32918;SDS011;19280;42.646;21.150;2022-08-02T08:37:01;2.33;;;1.17;;
32918;SDS011;19280;42.646;21.150;2022-08-02T08:39:28;4.70;;;1.23;;
32918;SDS011;19280;42.646;21.150;2022-08-02T08:41:55;3.72;;;1.65;;
32918;SDS011;19280;42.646;21.150;2022-08-02T08:44:22;2.70;;;1.45;;
32918;SDS011;19280;42.646;21.150;2022-08-02T08:46:48;3.28;;;1.20;;
32918;SDS011;19280;42.646;21.150;2022-08-02T08:51:48;5.97;;;1.55;;
32918;SDS011;19280;42.646;21.150;2022-08-02T08:54:16;2.88;;;1.30;;
32918;SDS011;19280;42.646;21.150;2022-08-02T08:56:43;4.60;;;1.30;;
32918;SDS011;19280;42.646;21.150;2022-08-02T08:59:10;2.47;;;1.23;;
32918;SDS011;19280;42.646;21.150;2022-08-02T09:01:37;2.58;;;1.10;;
32918;SDS011;19280;42.646;21.150;2022-08-02T09:04:04;2.85;;;1.50;;
32918;SDS011;19280;42.646;21.150;2022-08-02T09:06:30;2.33;;;1.50;;
32918;SDS011;19280;42.646;21.150;2022-08-02T09:08:57;4.88;;;2.10;;
32918;SDS011;19280;42.646;21.150;2022-08-02T09:11:25;2.85;;;1.40;;
32918;SDS011;19280;42.646;21.150;2022-08-02T09:13:53;2.47;;;0.90;;
32918;SDS011;19280;42.646;21.150;2022-08-02T09:16:27;1.98;;;1.30;;
32918;SDS011;19280;42.646;21.150;2022-08-02T09:18:54;11.63;;;1.40;;
32918;SDS011;19280;42.646;21.150;2022-08-02T09:21:21;3.00;;;1.25;;
32918;SDS011;19280;42.646;21.150;2022-08-02T09:23:49;8.80;;;1.40;;
32918;SDS011;19280;42.646;21.150;2022-08-02T09:26:18;2.92;;;1.23;;
32918;SDS011;19280;42.646;21.150;2022-08-02T09:28:45;5.95;;;1.33;;
32918;SDS011;19280;42.646;21.150;2022-08-02T09:31:16;1.60;;;1.30;;
32918;SDS011;19280;42.646;21.150;2022-08-02T09:33:44;2.00;;;1.10;;
32918;SDS011;19280;42.646;21.150;2022-08-02T09:36:13;3.53;;;1.05;;
32918;SDS011;19280;42.646;21.150;2022-08-02T09:38:51;9.18;;;1.20;;
32918;SDS011;19280;42.646;21.150;2022-08-02T09:41:20;5.68;;;1.27;;
32918;SDS011;19280;42.646;21.150;2022-08-02T09:43:48;5.80;;;1.80;;
32918;SDS011;19280;42.646;21.150;2022-08-02T09:46:16;13.32;;;5.40;;
32918;SDS011;19280;42.646;21.150;2022-08-02T09:49:00;4.93;;;1.42;;
32918;SDS011;19280;42.646;21.150;2022-08-02T09:51:28;3.17;;;1.10;;
32918;SDS011;19280;42.646;21.150;2022-08-02T09:53:56;8.38;;;1.67;;
32918;SDS011;19280;42.646;21.150;2022-08-02T09:56:24;5.47;;;1.60;;
32918;SDS011;19280;42.646;21.150;2022-08-02T09:58:51;6.90;;;1.90;;
32918;SDS011;19280;42.646;21.150;2022-08-02T10:01:20;2.75;;;1.38;;
32918;SDS011;19280;42.646;21.150;2022-08-02T10:03:58;2.47;;;1.70;;
32918;SDS011;19280;42.646;21.150;2022-08-02T10:06:25;1.80;;;1.10;;
32918;SDS011;19280;42.646;21.150;2022-08-02T10:08:53;2.30;;;1.33;;
32918;SDS011;19280;42.646;21.150;2022-08-02T10:11:20;4.15;;;1.15;;
32918;SDS011;19280;42.646;21.150;2022-08-02T10:13:48;4.82;;;1.40;;
32918;SDS011;19280;42.646;21.150;2022-08-02T10:16:15;4.85;;;1.35;;
32918;SDS011;19280;42.646;21.150;2022-08-02T10:18:44;3.60;;;1.30;;
32918;SDS011;19280;42.646;21.150;2022-08-02T10:21:12;2.35;;;1.20;;
32918;SDS011;19280;42.646;21.150;2022-08-02T10:23:41;5.30;;;2.20;;
32918;SDS011;19280;42.646;21.150;2022-08-02T10:26:11;6.45;;;1.30;;
32918;SDS011;19280;42.646;21.150;2022-08-02T10:28:38;4.72;;;0.93;;
32918;SDS011;19280;42.646;21.150;2022-08-02T10:31:05;7.38;;;1.30;;
32918;SDS011;19280;42.646;21.150;2022-08-02T10:33:33;2.70;;;1.35;;
32918;SDS011;19280;42.646;21.150;2022-08-02T10:36:01;6.18;;;1.65;;
32918;SDS011;19280;42.646;21.150;2022-08-02T10:38:28;3.67;;;1.40;;
32918;SDS011;19280;42.646;21.150;2022-08-02T10:40:55;2.63;;;1.27;;
32918;SDS011;19280;42.646;21.150;2022-08-02T10:54:18;4.18;;;1.30;;
32918;SDS011;19280;42.646;21.150;2022-08-02T10:56:46;6.28;;;1.40;;
32918;SDS011;19280;42.646;21.150;2022-08-02T11:01:57;7.47;;;1.30;;
32918;SDS011;19280;42.646;21.150;2022-08-02T11:04:28;1.85;;;1.13;;
32918;SDS011;19280;42.646;21.150;2022-08-02T11:07:08;10.80;;;8.05;;
32918;SDS011;19280;42.646;21.150;2022-08-02T11:09:36;6.28;;;1.25;;
32918;SDS011;19280;42.646;21.150;2022-08-02T11:12:07;5.47;;;1.40;;
32918;SDS011;19280;42.646;21.150;2022-08-02T11:14:36;3.38;;;1.02;;
32918;SDS011;19280;42.646;21.150;2022-08-02T11:17:04;1.45;;;0.90;;
32918;SDS011;19280;42.646;21.150;2022-08-02T11:19:32;4.53;;;1.15;;
32918;SDS011;19280;42.646;21.150;2022-08-02T11:24:33;1.75;;;1.20;;
32918;SDS011;19280;42.646;21.150;2022-08-02T11:27:00;5.40;;;1.70;;
32918;SDS011;19280;42.646;21.150;2022-08-02T11:29:35;7.28;;;1.52;;
32918;SDS011;19280;42.646;21.150;2022-08-02T11:32:03;1.20;;;0.90;;
32918;SDS011;19280;42.646;21.150;2022-08-02T11:34:30;3.13;;;1.40;;
32918;SDS011;19280;42.646;21.150;2022-08-02T11:36:58;1.40;;;1.27;;
32918;SDS011;19280;42.646;21.150;2022-08-02T11:39:25;2.25;;;1.40;;
32918;SDS011;19280;42.646;21.150;2022-08-02T11:41:57;5.50;;;1.30;;
32918;SDS011;19280;42.646;21.150;2022-08-02T11:44:24;5.40;;;1.70;;
32918;SDS011;19280;42.646;21.150;2022-08-02T11:46:56;3.00;;;1.50;;
32918;SDS011;19280;42.646;21.150;2022-08-02T11:51:50;8.90;;;1.67;;
32918;SDS011;19280;42.646;21.150;2022-08-02T11:54:21;3.80;;;1.38;;
32918;SDS011;19280;42.646;21.150;2022-08-02T11:56:48;3.05;;;1.63;;
32918;SDS011;19280;42.646;21.150;2022-08-02T11:59:15;1.17;;;0.90;;
32918;SDS011;19280;42.646;21.150;2022-08-02T12:01:41;2.30;;;1.20;;
32918;SDS011;19280;42.646;21.150;2022-08-02T12:04:08;10.02;;;2.17;;
32918;SDS011;19280;42.646;21.150;2022-08-02T12:06:35;5.60;;;1.55;;
32918;SDS011;19280;42.646;21.150;2022-08-02T12:09:06;2.53;;;1.30;;
32918;SDS011;19280;42.646;21.150;2022-08-02T12:11:33;2.33;;;1.50;;
32918;SDS011;19280;42.646;21.150;2022-08-02T12:14:03;4.45;;;1.45;;
32918;SDS011;19280;42.646;21.150;2022-08-02T12:16:32;3.35;;;1.45;;
32918;SDS011;19280;42.646;21.150;2022-08-02T12:19:18;4.07;;;1.48;;
32918;SDS011;19280;42.646;21.150;2022-08-02T12:21:48;2.85;;;1.60;;
32918;SDS011;19280;42.646;21.150;2022-08-02T12:24:26;3.05;;;1.40;;
32918;SDS011;19280;42.646;21.150;2022-08-02T12:26:53;1.85;;;1.30;;
32918;SDS011;19280;42.646;21.150;2022-08-02T12:29:31;4.00;;;1.42;;
32918;SDS011;19280;42.646;21.150;2022-08-02T12:31:58;3.05;;;1.20;;
32918;SDS011;19280;42.646;21.150;2022-08-02T12:34:26;1.92;;;1.15;;
32918;SDS011;19280;42.646;21.150;2022-08-02T12:37:04;3.45;;;1.42;;
32918;SDS011;19280;42.646;21.150;2022-08-02T12:39:46;8.70;;;2.00;;
32918;SDS011;19280;42.646;21.150;2022-08-02T12:42:15;13.38;;;1.67;;
32918;SDS011;19280;42.646;21.150;2022-08-02T12:47:16;1.48;;;1.17;;
32918;SDS011;19280;42.646;21.150;2022-08-02T12:49:43;7.65;;;3.83;;
32918;SDS011;19280;42.646;21.150;2022-08-02T12:52:20;5.63;;;1.75;;
32918;SDS011;19280;42.646;21.150;2022-08-02T12:54:47;3.53;;;1.33;;
32918;SDS011;19280;42.646;21.150;2022-08-02T12:57:15;1.90;;;1.10;;
32918;SDS011;19280;42.646;21.150;2022-08-02T12:59:48;3.33;;;1.88;;
32918;SDS011;19280;42.646;21.150;2022-08-02T13:02:15;2.55;;;1.40;;
32918;SDS011;19280;42.646;21.150;2022-08-02T13:04:42;2.13;;;1.33;;
32918;SDS011;19280;42.646;21.150;2022-08-02T13:07:09;6.03;;;1.60;;
32918;SDS011;19280;42.646;21.150;2022-08-02T13:09:36;6.50;;;1.60;;
32918;SDS011;19280;42.646;21.150;2022-08-02T13:12:04;5.95;;;1.27;;
32918;SDS011;19280;42.646;21.150;2022-08-02T13:14:32;4.28;;;1.30;;
32918;SDS011;19280;42.646;21.150;2022-08-02T13:16:58;4.97;;;1.50;;
32918;SDS011;19280;42.646;21.150;2022-08-02T13:19:25;1.45;;;1.10;;
32918;SDS011;19280;42.646;21.150;2022-08-02T13:21:52;5.63;;;1.40;;
32918;SDS011;19280;42.646;21.150;2022-08-02T13:24:19;2.72;;;1.30;;
32918;SDS011;19280;42.646;21.150;2022-08-02T13:26:46;4.55;;;1.20;;
32918;SDS011;19280;42.646;21.150;2022-08-02T13:29:13;4.20;;;1.33;;
32918;SDS011;19280;42.646;21.150;2022-08-02T13:31:39;2.40;;;1.35;;
32918;SDS011;19280;42.646;21.150;2022-08-02T13:34:07;2.40;;;1.50;;
32918;SDS011;19280;42.646;21.150;2022-08-02T13:36:35;3.85;;;1.20;;
32918;SDS011;19280;42.646;21.150;2022-08-02T13:39:02;2.00;;;1.30;;
32918;SDS011;19280;42.646;21.150;2022-08-02T13:41:30;1.38;;;0.88;;
32918;SDS011;19280;42.646;21.150;2022-08-02T13:43:57;2.03;;;1.40;;
32918;SDS011;19280;42.646;21.150;2022-08-02T13:46:24;1.55;;;1.30;;
32918;SDS011;19280;42.646;21.150;2022-08-02T13:48:51;3.70;;;1.50;;
32918;SDS011;19280;42.646;21.150;2022-08-02T13:51:18;4.10;;;1.30;;
32918;SDS011;19280;42.646;21.150;2022-08-02T13:53:45;6.75;;;1.98;;
32918;SDS011;19280;42.646;21.150;2022-08-02T13:56:12;3.92;;;2.88;;
32918;SDS011;19280;42.646;21.150;2022-08-02T13:58:38;4.13;;;2.03;;
32918;SDS011;19280;42.646;21.150;2022-08-02T14:01:05;3.80;;;2.13;;
32918;SDS011;19280;42.646;21.150;2022-08-02T14:03:32;4.65;;;1.52;;
32918;SDS011;19280;42.646;21.150;2022-08-02T14:05:58;3.45;;;2.05;;
32918;SDS011;19280;42.646;21.150;2022-08-02T14:08:25;1.23;;;1.08;;
32918;SDS011;19280;42.646;21.150;2022-08-02T14:10:52;1.40;;;1.20;;
32918;SDS011;19280;42.646;21.150;2022-08-02T14:13:20;1.73;;;1.10;;
32918;SDS011;19280;42.646;21.150;2022-08-02T14:15:47;2.28;;;1.10;;
32918;SDS011;19280;42.646;21.150;2022-08-02T14:18:14;2.03;;;1.30;;
32918;SDS011;19280;42.646;21.150;2022-08-02T14:20:42;2.45;;;1.73;;
32918;SDS011;19280;42.646;21.150;2022-08-02T14:23:09;4.82;;;1.73;;
32918;SDS011;19280;42.646;21.150;2022-08-02T14:25:36;9.98;;;1.45;;
32918;SDS011;19280;42.646;21.150;2022-08-02T14:28:03;2.50;;;1.20;;
32918;SDS011;19280;42.646;21.150;2022-08-02T14:30:30;3.50;;;1.50;;
32918;SDS011;19280;42.646;21.150;2022-08-02T14:32:57;1.85;;;1.40;;
32918;SDS011;19280;42.646;21.150;2022-08-02T14:35:24;4.18;;;1.52;;
32918;SDS011;19280;42.646;21.150;2022-08-02T14:37:51;4.13;;;1.40;;
32918;SDS011;19280;42.646;21.150;2022-08-02T14:40:18;5.95;;;1.83;;
32918;SDS011;19280;42.646;21.150;2022-08-02T14:42:45;6.43;;;3.47;;
32918;SDS011;19280;42.646;21.150;2022-08-02T14:45:12;4.68;;;2.80;;
32918;SDS011;19280;42.646;21.150;2022-08-02T14:47:41;5.40;;;1.80;;
32918;SDS011;19280;42.646;21.150;2022-08-02T14:50:08;4.90;;;1.52;;
32918;SDS011;19280;42.646;21.150;2022-08-02T14:52:36;2.00;;;1.35;;
32918;SDS011;19280;42.646;21.150;2022-08-02T14:55:03;15.63;;;1.40;;
32918;SDS011;19280;42.646;21.150;2022-08-02T14:57:30;3.58;;;1.30;;
32918;SDS011;19280;42.646;21.150;2022-08-02T14:59:57;4.22;;;1.80;;
32918;SDS011;19280;42.646;21.150;2022-08-02T15:02:26;3.13;;;1.33;;
32918;SDS011;19280;42.646;21.150;2022-08-02T15:04:53;1.92;;;1.38;;
32918;SDS011;19280;42.646;21.150;2022-08-02T15:07:19;2.35;;;1.30;;
32918;SDS011;19280;42.646;21.150;2022-08-02T15:09:46;3.08;;;1.33;;
32918;SDS011;19280;42.646;21.150;2022-08-02T15:12:13;4.28;;;1.40;;
32918;SDS011;19280;42.646;21.150;2022-08-02T15:14:40;3.40;;;1.20;;
32918;SDS011;19280;42.646;21.150;2022-08-02T15:17:08;2.65;;;1.20;;